Time;durP1;ratioP1;P1;durP2;ratioP2;P2;SDS_P1;SDS_P2;PMS_P1;PMS_P2;Temp;Humidity;BMP_temperature;BMP_pressure;BME280_temperature;BME280_humidity;BME280_pressure;Samples;Min_cycle;Max_cycle;Signal;HPM_P1;HPM_P2
2023/06/05 00:01:06;;;;;;;1.50;1.40;;;16.90;71.90;;;;;;5011834;28;20041;-51
2023/06/05 00:03:32;;;;;;;3.97;1.60;;;16.90;72.10;;;;;;5012030;28;20433;-56
2023/06/05 00:05:57;;;;;;;1.73;1.42;;;16.90;72.10;;;;;;5012196;28;20030;-55
2023/06/05 00:08:23;;;;;;;6.40;1.48;;;16.90;72.20;;;;;;5010969;28;20022;-54
2023/06/05 00:10:48;;;;;;;2.00;1.50;;;16.80;72.30;;;;;;5010417;28;20037;-54
2023/06/05 00:13:14;;;;;;;3.58;1.30;;;16.80;72.30;;;;;;5010680;28;20484;-55
2023/06/05 00:15:39;;;;;;;3.42;1.40;;;16.70;72.30;;;;;;5012062;28;20076;-54
2023/06/05 00:18:05;;;;;;;6.93;1.77;;;16.70;72.30;;;;;;5015246;22;20073;-52
2023/06/05 00:20:31;;;;;;;7.40;1.50;;;16.70;72.40;;;;;;4991920;28;20397;-51
2023/06/05 00:22:56;;;;;;;2.25;1.60;;;16.70;72.20;;;;;;4973385;28;20033;-52
2023/06/05 00:25:22;;;;;;;3.10;2.25;;;16.70;72.20;;;;;;4972790;28;20019;-47
2023/06/05 00:27:47;;;;;;;4.25;1.33;;;16.80;72.10;;;;;;4972046;28;20015;-53
2023/06/05 00:30:13;;;;;;;1.75;1.50;;;16.70;72.50;;;;;;4972815;28;20034;-51
2023/06/05 00:32:39;;;;;;;1.92;1.40;;;16.60;72.50;;;;;;4972434;28;20029;-53
2023/06/05 00:35:06;;;;;;;4.30;1.45;;;16.60;72.50;;;;;;4972380;28;20038;-52
2023/06/05 00:37:33;;;;;;;1.45;1.30;;;16.50;72.80;;;;;;4987588;28;20031;-50
2023/06/05 00:39:59;;;;;;;2.88;1.45;;;16.50;72.40;;;;;;4972656;28;20427;-51
2023/06/05 00:42:26;;;;;;;4.68;1.63;;;16.60;72.50;;;;;;4972393;28;20031;-49
2023/06/05 00:44:52;;;;;;;3.28;1.35;;;16.50;72.30;;;;;;4972386;28;20023;-54
2023/06/05 00:47:17;;;;;;;2.78;1.65;;;16.60;72.50;;;;;;4972570;28;20387;-54
2023/06/05 00:49:43;;;;;;;1.75;1.50;;;16.50;72.40;;;;;;4972500;28;20058;-54
2023/06/05 00:52:09;;;;;;;1.73;1.58;;;16.50;72.40;;;;;;4972239;28;20125;-51
2023/06/05 00:54:34;;;;;;;3.67;1.67;;;16.40;72.60;;;;;;4972238;28;20096;-51
2023/06/05 00:57:00;;;;;;;8.38;1.60;;;16.30;72.60;;;;;;4972519;28;20030;-51
2023/06/05 00:59:26;;;;;;;1.65;1.50;;;16.40;72.90;;;;;;4972601;28;20043;-54
2023/06/05 01:01:54;;;;;;;5.78;2.20;;;16.40;72.80;;;;;;4972105;28;20039;-53
2023/06/05 01:04:19;;;;;;;2.38;1.83;;;16.40;72.90;;;;;;4972048;28;20105;-52
2023/06/05 01:06:45;;;;;;;2.42;2.10;;;16.30;72.80;;;;;;4972678;28;20526;-51
2023/06/05 01:09:13;;;;;;;2.10;1.90;;;16.30;72.80;;;;;;4972648;28;20117;-52
2023/06/05 01:11:56;;;;;;;6.47;2.45;;;16.30;72.90;;;;;;4972035;28;20054;-56
2023/06/05 01:14:23;;;;;;;2.28;1.52;;;16.30;72.80;;;;;;4971029;28;20492;-49
2023/06/05 01:16:53;;;;;;;3.20;2.58;;;16.30;72.90;;;;;;4972255;28;20437;-50
2023/06/05 01:19:24;;;;;;;3.63;1.38;;;16.30;73.50;;;;;;4972210;28;20053;-50
2023/06/05 01:21:50;;;;;;;5.00;1.83;;;16.30;72.70;;;;;;4972204;28;20434;-51
2023/06/05 01:24:17;;;;;;;3.63;1.60;;;16.30;72.70;;;;;;4972094;28;20019;-50
2023/06/05 01:26:52;;;;;;;2.25;1.60;;;16.20;72.90;;;;;;4972554;28;20023;-50
2023/06/05 01:29:27;;;;;;;1.67;1.58;;;16.10;73.00;;;;;;4972337;28;20026;-50
2023/06/05 01:31:58;;;;;;;2.13;1.90;;;16.20;73.20;;;;;;4972355;28;20027;-50
2023/06/05 01:34:26;;;;;;;8.30;1.63;;;16.20;72.90;;;;;;4971923;28;20110;-51
2023/06/05 01:36:53;;;;;;;3.65;1.52;;;16.10;73.20;;;;;;4972273;28;20047;-54
2023/06/05 01:39:20;;;;;;;2.08;1.42;;;16.10;73.20;;;;;;4973934;28;20471;-46
2023/06/05 01:41:48;;;;;;;4.07;1.50;;;16.00;73.60;;;;;;4975494;28;20023;-54
2023/06/05 01:44:15;;;;;;;2.35;1.30;;;16.00;73.70;;;;;;4973698;28;20538;-50
2023/06/05 01:46:41;;;;;;;1.67;1.25;;;15.90;73.80;;;;;;4975699;28;20051;-50
2023/06/05 01:49:08;;;;;;;6.80;1.60;;;16.00;73.90;;;;;;4975836;28;20399;-50
2023/06/05 01:51:33;;;;;;;3.13;2.17;;;16.00;74.00;;;;;;4975438;28;20030;-52
2023/06/05 01:53:59;;;;;;;2.78;1.60;;;16.00;74.10;;;;;;4975436;28;20023;-53
2023/06/05 01:56:25;;;;;;;1.55;1.42;;;15.90;74.20;;;;;;4975532;28;20030;-54
2023/06/05 01:58:52;;;;;;;1.83;1.60;;;15.90;74.20;;;;;;4974105;28;20030;-53
2023/06/05 02:01:22;;;;;;;1.35;1.25;;;15.90;74.20;;;;;;4975029;28;20022;-56
2023/06/05 02:03:49;;;;;;;2.10;1.88;;;15.80;74.10;;;;;;4975173;28;20073;-54
2023/06/05 02:06:16;;;;;;;3.97;1.70;;;15.80;74.30;;;;;;4975273;28;20463;-49
2023/06/05 02:08:42;;;;;;;3.33;1.40;;;15.80;74.50;;;;;;4975686;28;20027;-51
2023/06/05 02:11:10;;;;;;;3.55;2.05;;;15.80;74.60;;;;;;4974889;28;20045;-53
2023/06/05 02:13:40;;;;;;;1.88;1.55;;;15.80;75.20;;;;;;4974223;28;20057;-54
2023/06/05 02:16:09;;;;;;;7.13;1.50;;;15.70;74.70;;;;;;4975168;28;20019;-52
2023/06/05 02:18:37;;;;;;;1.63;1.23;;;15.70;74.90;;;;;;4975214;28;20097;-50
2023/06/05 02:21:03;;;;;;;2.80;1.40;;;15.60;75.00;;;;;;4974741;28;20023;-51
2023/06/05 02:23:28;;;;;;;1.85;1.55;;;15.60;75.20;;;;;;4974621;28;20023;-49
2023/06/05 02:25:54;;;;;;;2.47;1.65;;;15.60;75.30;;;;;;4975035;28;20026;-51
2023/06/05 02:28:20;;;;;;;3.40;1.40;;;15.60;75.40;;;;;;4974966;28;20106;-50
2023/06/05 02:30:47;;;;;;;1.80;1.30;;;15.60;75.50;;;;;;4974529;28;20098;-54
2023/06/05 02:33:14;;;;;;;5.88;1.45;;;15.50;75.60;;;;;;4974620;28;20487;-49
2023/06/05 02:35:40;;;;;;;2.38;1.88;;;15.50;75.80;;;;;;4974714;28;20449;-51
2023/06/05 02:38:07;;;;;;;1.67;1.58;;;15.40;75.90;;;;;;4974537;28;20073;-55
2023/06/05 02:40:32;;;;;;;1.75;1.52;;;15.40;76.10;;;;;;4974317;28;20102;-48
2023/06/05 02:42:58;;;;;;;1.67;1.58;;;15.30;76.10;;;;;;4974310;28;20599;-51
2023/06/05 02:45:23;;;;;;;1.33;1.20;;;15.30;76.10;;;;;;4974508;28;20062;-49
2023/06/05 02:47:49;;;;;;;4.40;1.80;;;15.20;76.40;;;;;;4974644;28;20023;-50
2023/06/05 02:50:14;;;;;;;4.57;1.58;;;15.20;76.60;;;;;;4973563;28;20023;-51
2023/06/05 02:52:40;;;;;;;2.85;1.38;;;15.20;76.80;;;;;;4973962;28;20037;-53
2023/06/05 02:55:07;;;;;;;2.90;1.95;;;15.10;76.90;;;;;;4974230;28;20035;-48
2023/06/05 02:57:40;;;;;;;2.55;1.90;;;15.10;76.80;;;;;;4974360;28;20106;-48
2023/06/05 03:00:07;;;;;;;1.67;1.58;;;15.20;76.90;;;;;;4974315;28;20058;-52
2023/06/05 03:02:36;;;;;;;1.55;1.45;;;15.10;76.80;;;;;;4973835;28;20035;-50
2023/06/05 03:05:02;;;;;;;2.10;1.20;;;15.10;77.00;;;;;;4973887;28;20030;-50
2023/06/05 03:07:27;;;;;;;3.78;1.88;;;15.10;77.10;;;;;;4974172;28;20019;-52
2023/06/05 03:09:53;;;;;;;4.95;1.85;;;15.10;77.10;;;;;;4973355;28;20109;-51
2023/06/05 03:12:18;;;;;;;2.40;1.95;;;15.10;77.10;;;;;;4974259;28;20030;-49
2023/06/05 03:14:44;;;;;;;1.20;1.10;;;15.00;77.20;;;;;;4972981;28;20042;-51
2023/06/05 03:17:10;;;;;;;1.40;1.27;;;15.10;78.00;;;;;;4973829;28;20031;-47
2023/06/05 03:19:35;;;;;;;1.50;1.40;;;15.10;77.20;;;;;;4973076;28;20151;-51
2023/06/05 03:22:01;;;;;;;7.80;3.30;;;15.10;78.00;;;;;;4973467;28;20038;-54
2023/06/05 03:24:27;;;;;;;2.30;1.70;;;15.10;77.30;;;;;;4973660;28;20026;-49
2023/06/05 03:26:53;;;;;;;2.08;1.30;;;15.10;77.40;;;;;;4974260;28;20072;-50
2023/06/05 03:29:18;;;;;;;3.60;1.70;;;15.10;77.30;;;;;;4973949;28;20486;-48
2023/06/05 03:31:44;;;;;;;20.25;2.38;;;15.10;77.40;;;;;;4973279;28;20502;-50
2023/06/05 03:34:10;;;;;;;4.78;1.65;;;15.00;77.50;;;;;;4973515;28;20023;-51
2023/06/05 03:36:37;;;;;;;1.83;1.70;;;15.10;77.70;;;;;;4973622;28;20070;-52
2023/06/05 03:39:03;;;;;;;2.22;1.65;;;15.00;77.60;;;;;;4973705;28;20090;-47
2023/06/05 03:41:29;;;;;;;2.92;1.58;;;15.00;77.90;;;;;;4973215;28;20026;-48
2023/06/05 03:43:54;;;;;;;1.65;1.33;;;14.90;78.10;;;;;;4973603;28;20030;-48
2023/06/05 03:46:20;;;;;;;2.15;1.50;;;14.90;78.20;;;;;;4973375;28;20031;-51
2023/06/05 03:48:46;;;;;;;2.08;1.70;;;15.00;78.20;;;;;;4973501;28;20019;-50
2023/06/05 03:51:13;;;;;;;3.33;1.52;;;14.90;78.30;;;;;;4973228;28;20118;-54
2023/06/05 03:53:39;;;;;;;2.45;1.70;;;14.90;78.50;;;;;;4973245;28;20065;-55
2023/06/05 03:56:06;;;;;;;2.75;1.73;;;14.90;78.60;;;;;;4973351;28;20031;-50
2023/06/05 03:58:32;;;;;;;2.20;1.95;;;14.90;78.80;;;;;;4973701;28;20088;-50
2023/06/05 04:00:58;;;;;;;3.97;2.25;;;14.90;78.80;;;;;;4972751;28;20106;-52
2023/06/05 04:03:25;;;;;;;1.67;1.52;;;14.90;79.00;;;;;;4972850;28;20540;-48
2023/06/05 04:05:50;;;;;;;1.73;1.63;;;14.90;79.00;;;;;;4972880;28;20112;-52
2023/06/05 04:08:16;;;;;;;4.15;1.60;;;14.90;79.00;;;;;;4973103;28;20059;-51
2023/06/05 04:10:42;;;;;;;1.35;1.25;;;14.90;79.40;;;;;;4972562;28;20521;-50
2023/06/05 04:13:07;;;;;;;2.72;1.40;;;14.90;79.40;;;;;;4971608;28;20019;-58
2023/06/05 04:15:33;;;;;;;6.10;1.80;;;14.90;79.50;;;;;;4973049;28;20029;-50
2023/06/05 04:17:59;;;;;;;2.15;1.52;;;14.90;79.80;;;;;;4972924;28;20538;-51
2023/06/05 04:20:25;;;;;;;1.55;1.42;;;14.90;79.80;;;;;;4972460;28;20031;-50
2023/06/05 04:22:50;;;;;;;1.92;1.67;;;14.90;80.10;;;;;;4972493;28;20054;-51
2023/06/05 04:25:16;;;;;;;2.92;1.33;;;15.00;79.80;;;;;;4972747;28;20117;-51
2023/06/05 04:27:43;;;;;;;4.20;1.50;;;15.10;80.00;;;;;;4972589;28;20038;-51
2023/06/05 04:30:11;;;;;;;2.70;1.10;;;15.20;79.80;;;;;;4972611;28;20107;-50
2023/06/05 04:32:38;;;;;;;4.13;1.50;;;15.30;79.70;;;;;;4972615;28;20383;-51
2023/06/05 04:35:05;;;;;;;2.45;1.73;;;15.30;79.80;;;;;;4972456;28;20439;-50
2023/06/05 04:37:31;;;;;;;4.65;1.67;;;15.40;79.60;;;;;;4972914;28;20537;-47
2023/06/05 04:39:58;;;;;;;2.40;1.38;;;15.50;79.30;;;;;;4972506;28;20034;-53
2023/06/05 04:42:23;;;;;;;2.90;1.45;;;15.70;79.20;;;;;;4972189;28;20114;-53
2023/06/05 04:45:03;;;;;;;2.67;1.52;;;15.80;78.80;;;;;;4972408;28;20117;-50
2023/06/05 04:47:29;;;;;;;2.10;1.25;;;15.90;78.90;;;;;;4972520;28;20019;-54
2023/06/05 04:49:57;;;;;;;2.15;1.25;;;16.00;78.80;;;;;;4972280;28;20023;-52
2023/06/05 04:52:23;;;;;;;1.58;1.48;;;16.30;78.30;;;;;;4972363;28;20015;-55
2023/06/05 04:54:49;;;;;;;4.35;1.65;;;16.50;77.60;;;;;;4972079;28;20032;-55
2023/06/05 04:57:16;;;;;;;5.22;1.90;;;16.90;77.50;;;;;;4972472;28;20071;-53
2023/06/05 04:59:45;;;;;;;1.65;1.40;;;17.50;75.40;;;;;;4972673;28;20030;-50
2023/06/05 05:02:11;;;;;;;2.42;1.70;;;18.30;74.00;;;;;;4972199;28;20027;-49
2023/06/05 05:04:37;;;;;;;2.05;1.48;;;18.90;72.50;;;;;;4971804;28;20070;-50
2023/06/05 05:07:03;;;;;;;3.92;1.80;;;19.30;71.70;;;;;;4972364;28;20310;-52
2023/06/05 05:09:32;;;;;;;1.38;1.27;;;20.00;70.60;;;;;;4972405;28;20038;-51
2023/06/05 05:11:58;;;;;;;9.98;1.48;;;20.40;69.80;;;;;;4971857;28;20034;-54
2023/06/05 05:14:27;;;;;;;3.78;1.55;;;20.70;68.70;;;;;;4973091;28;20395;-48
2023/06/05 05:16:52;;;;;;;1.92;1.73;;;21.00;68.20;;;;;;4976014;28;20455;-52
2023/06/05 05:19:18;;;;;;;1.48;1.38;;;21.20;67.70;;;;;;4975902;28;20101;-52
2023/06/05 05:21:45;;;;;;;3.17;1.38;;;21.20;67.70;;;;;;4975587;28;20063;-51
2023/06/05 05:24:11;;;;;;;4.50;1.30;;;21.40;69.40;;;;;;4975853;28;20041;-51
2023/06/05 05:26:39;;;;;;;1.77;1.45;;;21.60;67.00;;;;;;4975959;28;20110;-49
2023/06/05 05:29:05;;;;;;;3.70;1.63;;;21.80;66.50;;;;;;4976181;28;20034;-50
2023/06/05 05:31:31;;;;;;;2.30;1.63;;;21.90;66.90;;;;;;4975940;28;20113;-50
2023/06/05 05:33:58;;;;;;;1.50;1.40;;;22.10;66.10;;;;;;4975761;28;20023;-49
2023/06/05 05:36:24;;;;;;;1.75;1.42;;;22.20;66.10;;;;;;4975929;28;20029;-50
2023/06/05 05:38:50;;;;;;;1.88;1.20;;;22.50;65.80;;;;;;4976177;28;20036;-50
2023/06/05 05:41:15;;;;;;;4.30;1.65;;;22.60;65.40;;;;;;4975615;28;20026;-53
2023/06/05 05:43:41;;;;;;;1.25;1.15;;;23.00;65.60;;;;;;4975695;28;20033;-53
2023/06/05 05:46:06;;;;;;;3.25;1.55;;;23.10;65.20;;;;;;4975364;28;20053;-54
2023/06/05 05:48:35;;;;;;;2.53;1.63;;;23.10;65.30;;;;;;4975336;28;20019;-52
2023/06/05 05:51:01;;;;;;;2.58;1.60;;;23.30;63.60;;;;;;4974853;28;20026;-47
2023/06/05 05:53:26;;;;;;;6.57;1.50;;;23.50;64.10;;;;;;4975061;28;20081;-51
2023/06/05 05:55:53;;;;;;;4.68;1.23;;;23.60;63.70;;;;;;4975583;28;20035;-52
2023/06/05 05:58:19;;;;;;;3.13;1.95;;;23.70;64.10;;;;;;4975402;28;20023;-55
2023/06/05 06:00:45;;;;;;;3.55;1.70;;;23.90;62.60;;;;;;4974833;28;20033;-53
2023/06/05 06:03:11;;;;;;;3.63;1.90;;;24.00;63.50;;;;;;4974923;28;20030;-51
2023/06/05 06:05:37;;;;;;;13.27;4.13;;;24.20;62.70;;;;;;4975335;28;20023;-53
2023/06/05 06:08:03;;;;;;;2.30;1.17;;;23.90;62.60;;;;;;4975164;28;20019;-50
2023/06/05 06:10:30;;;;;;;9.20;2.13;;;23.60;62.60;;;;;;4989718;28;20487;-49
2023/06/05 06:12:56;;;;;;;1.80;1.40;;;23.90;62.50;;;;;;4974597;28;20394;-54
2023/06/05 06:15:22;;;;;;;2.47;1.70;;;23.90;62.00;;;;;;4974365;28;20050;-51
2023/06/05 06:17:47;;;;;;;1.42;1.33;;;24.00;62.90;;;;;;4996059;23;20080;-55
2023/06/05 06:20:15;;;;;;;5.00;1.60;;;;;;;;;;4994690;28;20026;-55
2023/06/05 06:22:41;;;;;;;4.88;1.27;;;25.50;60.20;;;;;;4981504;28;20102;-56
2023/06/05 06:25:10;;;;;;;3.70;1.33;;;25.60;60.60;;;;;;4973470;28;20102;-56
2023/06/05 06:27:36;;;;;;;6.18;1.67;;;25.60;60.60;;;;;;4974861;28;20023;-56
2023/06/05 06:30:03;;;;;;;6.63;1.50;;;25.90;60.10;;;;;;4974958;28;20023;-53
2023/06/05 06:32:29;;;;;;;4.55;1.48;;;;;;;;;;4974498;28;20443;-56
2023/06/05 06:34:58;;;;;;;3.83;1.52;;;;;;;;;;4974465;28;20026;-57
2023/06/05 06:37:31;;;;;;;4.80;1.50;;;;;;;;;;4974820;28;20151;-58
2023/06/05 06:39:56;;;;;;;3.17;1.27;;;26.30;91.00;;;;;;4974703;28;20050;-58
2023/06/05 06:42:22;;;;;;;5.43;1.40;;;26.20;85.20;;;;;;4974397;28;20506;-58
2023/06/05 06:44:47;;;;;;;7.10;1.55;;;26.20;84.80;;;;;;4974165;28;20069;-56
2023/06/05 06:47:13;;;;;;;4.13;1.25;;;26.00;85.50;;;;;;4974632;28;20110;-56
2023/06/05 06:49:41;;;;;;;6.00;1.60;;;26.10;86.10;;;;;;4974895;28;20502;-56
2023/06/05 06:52:07;;;;;;;6.68;1.30;;;26.40;85.50;;;;;;4974008;28;20027;-55
2023/06/05 06:54:34;;;;;;;1.55;1.30;;;;;;;;;;4974169;28;20038;-56
2023/06/05 06:57:03;;;;;;;2.38;1.40;;;;;;;;;;4974572;28;20054;-56
2023/06/05 06:59:30;;;;;;;2.90;1.30;;;;;;;;;;4974575;28;20102;-56
2023/06/05 07:02:13;;;;;;;3.25;1.50;;;26.00;90.10;;;;;;4974003;28;20460;-56
2023/06/05 07:04:41;;;;;;;5.13;1.50;;;;;;;;;;4973985;28;20044;-56
2023/06/05 07:07:10;;;;;;;4.22;1.55;;;;;;;;;;4974442;28;20027;-56
2023/06/05 07:09:36;;;;;;;3.00;1.80;;;25.90;89.70;;;;;;4974329;28;20022;-58
2023/06/05 07:12:04;;;;;;;4.68;2.17;;;25.80;89.80;;;;;;4972666;28;20514;-56
2023/06/05 07:14:45;;;;;;;6.03;1.73;;;;;;;;;;4973494;28;20050;-52
2023/06/05 07:17:18;;;;;;;7.57;2.22;;;;;;;;;;4974417;28;20125;-55
2023/06/05 07:19:44;;;;;;;4.75;1.83;;;;;;;;;;4974887;28;20434;-52
2023/06/05 07:22:11;;;;;;;2.63;1.23;;;;;;;;;;4974409;28;20123;-53
2023/06/05 07:24:38;;;;;;;7.22;1.48;;;;;;;;;;4973757;28;20106;-56
2023/06/05 07:27:04;;;;;;;3.63;1.77;;;26.30;89.40;;;;;;4973945;28;20038;-58
2023/06/05 07:29:30;;;;;;;4.93;2.05;;;26.40;62.80;;;;;;4972706;28;20027;-57
2023/06/05 07:31:58;;;;;;;5.15;1.65;;;;;;;;;;4981010;28;20109;-54
2023/06/05 07:34:26;;;;;;;5.65;1.63;;;;;;;;;;5000551;28;20485;-52
2023/06/05 07:36:55;;;;;;;2.40;1.80;;;;;;;;;;5012381;28;20116;-60
2023/06/05 07:39:22;;;;;;;2.13;1.60;;;;;;;;;;4995671;28;20022;-62
2023/06/05 07:41:50;;;;;;;1.30;1.20;;;;;;;;;;4992417;28;20053;-59
2023/06/05 07:44:17;;;;;;;5.82;1.60;;;;;;;;;;4993871;28;20470;-66
2023/06/05 07:46:45;;;;;;;5.15;1.83;;;;;;;;;;4992919;28;20462;-54
2023/06/05 07:49:11;;;;;;;4.40;1.33;;;28.30;85.40;;;;;;4992991;28;20097;-54
2023/06/05 07:51:38;;;;;;;3.30;1.70;;;;;;;;;;4991242;28;20555;-55
2023/06/05 07:54:07;;;;;;;4.72;1.70;;;28.60;82.50;;;;;;4992624;28;20057;-54
2023/06/05 07:56:33;;;;;;;1.35;1.25;;;28.00;83.60;;;;;;4992609;28;20080;-60
2023/06/05 07:59:02;;;;;;;5.18;1.50;;;;;;;;;;4991110;28;20038;-58
2023/06/05 08:01:30;;;;;;;8.18;1.70;;;;;;;;;;4981786;28;20033;-61
2023/06/05 08:03:59;;;;;;;2.72;1.25;;;;;;;;;;4982936;28;20423;-59
2023/06/05 08:06:29;;;;;;;3.47;1.73;;;;;;;;;;4973248;28;20023;-62
2023/06/05 08:08:58;;;;;;;2.90;1.42;;;;;;;;;;4988528;28;20014;-56
2023/06/05 08:11:24;;;;;;;3.65;1.27;;;28.00;86.60;;;;;;4991863;28;20109;-62
2023/06/05 08:13:50;;;;;;;2.08;1.50;;;28.10;61.10;;;;;;4992220;28;20022;-59
2023/06/05 08:16:15;;;;;;;2.53;1.50;;;28.60;59.30;;;;;;4992275;28;20033;-53
2023/06/05 08:18:42;;;;;;;2.75;1.67;;;29.00;57.20;;;;;;4992564;28;20034;-62
2023/06/05 08:21:08;;;;;;;1.50;1.30;;;28.50;57.00;;;;;;4992150;28;20038;-61
2023/06/05 08:23:33;;;;;;;13.48;2.08;;;28.40;57.00;;;;;;4991944;28;20030;-57
2023/06/05 08:25:59;;;;;;;4.03;1.40;;;28.50;56.90;;;;;;4992227;28;20395;-56
2023/06/05 08:28:24;;;;;;;1.90;1.58;;;28.10;57.60;;;;;;4992375;28;20019;-56
2023/06/05 08:30:51;;;;;;;2.67;1.50;;;27.40;57.60;;;;;;4991917;28;20029;-53
2023/06/05 08:33:21;;;;;;;3.00;1.42;;;;;;;;;;4992275;28;20479;-60
2023/06/05 08:35:50;;;;;;;3.30;1.60;;;;;;;;;;4992348;28;20073;-62
2023/06/05 08:38:19;;;;;;;4.25;1.77;;;;;;;;;;4990950;28;20080;-60
2023/06/05 08:40:48;;;;;;;3.63;1.60;;;26.50;90.50;;;;;;4992233;28;20030;-62
2023/06/05 08:43:13;;;;;;;3.80;1.45;;;26.30;60.10;;;;;;4992472;28;20500;-61
2023/06/05 08:45:39;;;;;;;3.60;1.80;;;26.00;60.20;;;;;;4992124;28;20105;-62
2023/06/05 08:48:08;;;;;;;2.85;1.80;;;26.00;60.60;;;;;;4991330;28;20022;-61
2023/06/05 08:50:37;;;;;;;4.95;1.45;;;25.80;60.80;;;;;;4991697;28;20029;-62
2023/06/05 08:53:02;;;;;;;5.97;1.73;;;25.80;61.10;;;;;;4991459;28;20053;-59
2023/06/05 08:55:29;;;;;;;5.13;1.58;;;25.80;61.50;;;;;;4991765;28;20046;-62
2023/06/05 08:57:55;;;;;;;3.55;2.10;;;26.10;60.90;;;;;;4990158;28;20029;-59
2023/06/05 09:00:22;;;;;;;3.97;2.15;;;25.90;61.20;;;;;;4990755;28;20030;-60
2023/06/05 09:02:47;;;;;;;4.13;1.50;;;25.60;61.60;;;;;;4991610;28;20026;-61
2023/06/05 09:05:17;;;;;;;3.33;2.50;;;25.30;62.30;;;;;;4991408;28;20023;-58
2023/06/05 09:07:43;;;;;;;3.47;1.83;;;25.60;62.90;;;;;;4991087;28;20053;-54
2023/06/05 09:10:30;;;;;;;21.85;16.67;;;25.70;63.40;;;;;;4991835;28;20026;-56
2023/06/05 09:12:57;;;;;;;15.98;11.48;;;25.90;61.60;;;;;;4990889;28;20031;-57
2023/06/05 09:15:28;;;;;;;3.60;1.80;;;26.20;62.80;;;;;;4991627;28;20405;-55
2023/06/05 09:18:08;;;;;;;3.00;1.73;;;26.10;61.90;;;;;;4991084;28;20035;-59
2023/06/05 09:20:34;;;;;;;5.93;2.35;;;26.20;62.70;;;;;;4990420;28;20459;-52
2023/06/05 09:23:01;;;;;;;4.05;1.77;;;26.10;62.20;;;;;;4991127;28;20394;-54
2023/06/05 09:25:43;;;;;;;4.30;2.08;;;26.30;62.90;;;;;;4991519;28;20377;-52
2023/06/05 09:28:08;;;;;;;6.25;1.60;;;26.20;62.80;;;;;;4986964;28;20038;-50
2023/06/05 09:30:52;;;;;;;4.82;2.13;;;26.40;62.70;;;;;;4990958;28;20077;-56
2023/06/05 09:33:19;;;;;;;4.47;2.03;;;26.20;63.20;;;;;;4990619;28;20109;-56
2023/06/05 09:35:44;;;;;;;6.95;2.80;;;26.30;63.40;;;;;;4991677;28;20023;-54
2023/06/05 09:38:37;;;;;;;3.20;2.17;;;26.40;63.20;;;;;;4990004;28;20022;-54
2023/06/05 09:41:10;;;;;;;2.42;2.05;;;26.40;62.90;;;;;;4988090;28;20137;-58
2023/06/05 09:43:37;;;;;;;3.88;1.75;;;26.20;62.80;;;;;;4980634;28;20044;-56
2023/06/05 09:46:10;;;;;;;2.90;1.95;;;26.30;64.50;;;;;;4987468;28;20027;-59
2023/06/05 09:48:36;;;;;;;5.43;1.98;;;26.10;64.50;;;;;;4991197;28;20461;-56
2023/06/05 09:51:17;;;;;;;3.40;2.28;;;26.00;63.80;;;;;;4989246;28;20057;-54
2023/06/05 09:53:48;;;;;;;4.40;2.78;;;25.80;63.80;;;;;;4990117;28;20011;-56
2023/06/05 09:56:15;;;;;;;5.68;2.55;;;25.80;62.80;;;;;;4991316;28;20394;-57
2023/06/05 09:58:52;;;;;;;5.50;2.10;;;25.40;62.50;;;;;;4991140;28;20031;-57
2023/06/05 10:01:22;;;;;;;4.28;1.67;;;25.30;62.90;;;;;;4994098;28;20030;-57
2023/06/05 10:03:53;;;;;;;7.25;2.10;;;25.30;63.50;;;;;;4984950;28;20038;-59
2023/06/05 10:06:23;;;;;;;2.10;1.80;;;25.20;63.60;;;;;;4993612;28;20080;-56
2023/06/05 10:08:50;;;;;;;4.78;2.03;;;25.10;62.80;;;;;;4993614;28;20164;-56
2023/06/05 10:11:18;;;;;;;6.97;1.98;;;25.00;62.30;;;;;;4992903;28;20026;-52
2023/06/05 10:13:45;;;;;;;2.50;1.80;;;25.10;63.20;;;;;;4991172;28;20057;-55
2023/06/05 10:16:11;;;;;;;5.00;2.00;;;25.20;63.50;;;;;;4993328;28;20291;-62
2023/06/05 10:18:36;;;;;;;4.00;1.98;;;25.40;62.90;;;;;;4994147;28;20143;-56
2023/06/05 10:21:02;;;;;;;2.22;1.92;;;25.30;61.10;;;;;;4989903;28;20502;-54
2023/06/05 10:23:28;;;;;;;1.85;1.75;;;25.20;61.80;;;;;;4994417;28;20072;-58
2023/06/05 10:25:56;;;;;;;4.90;1.83;;;25.20;60.50;;;;;;4989085;28;20026;-53
2023/06/05 10:28:49;;;;;;;8.30;1.77;;;25.20;60.60;;;;;;4994498;28;20023;-56
2023/06/05 10:31:26;;;;;;;6.45;1.95;;;25.10;61.20;;;;;;4994235;28;20061;-61
2023/06/05 10:34:12;;;;;;;8.90;2.03;;;25.10;60.80;;;;;;4989129;28;20042;-61
2023/06/05 10:37:03;;;;;;;2.72;1.52;;;25.00;60.20;;;;;;4993145;28;20406;-62
2023/06/05 10:39:31;;;;;;;2.50;1.75;;;25.20;61.30;;;;;;4995328;28;20042;-61
2023/06/05 10:41:58;;;;;;;4.50;1.83;;;25.30;60.90;;;;;;4995009;28;20098;-59
2023/06/05 10:44:41;;;;;;;6.47;1.88;;;25.50;62.00;;;;;;4993965;28;20489;-62
2023/06/05 10:47:31;;;;;;;1.77;1.45;;;25.40;60.10;;;;;;4994153;28;20026;-63
2023/06/05 10:50:15;;;;;;;8.35;1.70;;;25.30;60.80;;;;;;4993625;28;20034;-61
2023/06/05 10:52:42;;;;;;;1.42;1.33;;;25.40;60.40;;;;;;4993342;28;20524;-60
2023/06/05 10:55:08;;;;;;;2.25;1.80;;;25.30;60.30;;;;;;4993792;28;20149;-59
2023/06/05 10:58:03;;;;;;;4.10;2.30;;;25.30;60.90;;;;;;4994077;28;20026;-59
2023/06/05 11:00:32;;;;;;;3.50;1.88;;;25.30;60.90;;;;;;4983266;28;20406;-56
2023/06/05 11:02:58;;;;;;;4.47;1.92;;;25.30;59.90;;;;;;4993344;28;20148;-59
2023/06/05 11:05:25;;;;;;;4.50;2.03;;;25.50;59.90;;;;;;4992737;28;20502;-60
2023/06/05 11:08:15;;;;;;;4.03;1.80;;;25.40;59.20;;;;;;4992681;28;20418;-61
2023/06/05 11:11:02;;;;;;;23.80;15.50;;;25.40;59.20;;;;;;4982894;28;20046;-54
2023/06/05 11:13:56;;;;;;;2.00;1.83;;;25.40;58.10;;;;;;4993184;28;20076;-57
2023/06/05 11:16:29;;;;;;;2.13;1.92;;;25.20;57.80;;;;;;4993088;28;20030;-54
2023/06/05 11:19:15;;;;;;;5.40;1.88;;;25.20;58.00;;;;;;4990101;28;20030;-56
2023/06/05 11:22:03;;;;;;;2.08;1.90;;;25.30;59.30;;;;;;4984392;28;20031;-59
2023/06/05 11:24:29;;;;;;;2.97;1.80;;;25.30;57.90;;;;;;4993442;28;20164;-52
2023/06/05 11:26:54;;;;;;;2.30;2.10;;;25.30;58.50;;;;;;4992872;28;20034;-50
2023/06/05 11:29:22;;;;;;;5.38;2.17;;;25.30;57.70;;;;;;4994023;28;20026;-51
2023/06/05 11:31:48;;;;;;;2.25;2.00;;;25.30;56.80;;;;;;4992830;28;20061;-50
2023/06/05 11:34:14;;;;;;;3.72;1.65;;;25.20;55.80;;;;;;4993088;28;20053;-55
2023/06/05 11:36:40;;;;;;;7.88;2.00;;;25.20;58.00;;;;;;4992881;28;20030;-53
2023/06/05 11:39:05;;;;;;;3.08;1.50;;;25.30;58.20;;;;;;4992174;28;20414;-55
2023/06/05 11:41:31;;;;;;;11.02;2.08;;;25.40;58.10;;;;;;4988541;28;20046;-52
2023/06/05 11:43:57;;;;;;;2.33;2.08;;;25.50;58.40;;;;;;4992526;28;20493;-51
2023/06/05 11:46:37;;;;;;;5.63;2.40;;;25.50;56.60;;;;;;4992968;28;20034;-50
2023/06/05 11:49:02;;;;;;;4.07;1.95;;;25.40;58.10;;;;;;4992584;28;20025;-52
2023/06/05 11:51:33;;;;;;;2.72;2.53;;;25.40;57.80;;;;;;4991183;28;20030;-55
2023/06/05 11:54:01;;;;;;;6.45;2.10;;;25.40;58.60;;;;;;4992458;28;20403;-52
2023/06/05 11:56:27;;;;;;;2.90;1.65;;;25.40;57.60;;;;;;4992695;28;20026;-57
2023/06/05 11:58:54;;;;;;;2.90;2.42;;;25.40;58.40;;;;;;4992492;28;20037;-55
2023/06/05 12:01:24;;;;;;;4.35;2.08;;;25.50;57.80;;;;;;4990904;28;20494;-48
2023/06/05 12:04:06;;;;;;;5.13;1.90;;;25.60;58.10;;;;;;4992382;28;20040;-57
2023/06/05 12:06:31;;;;;;;4.05;1.95;;;25.60;59.10;;;;;;4992210;28;20034;-57
2023/06/05 12:09:14;;;;;;;8.02;2.17;;;25.70;59.40;;;;;;4991986;28;20030;-53
2023/06/05 12:11:40;;;;;;;4.35;1.52;;;25.60;58.70;;;;;;4992180;28;20490;-56
2023/06/05 12:14:06;;;;;;;5.05;1.88;;;25.60;59.00;;;;;;4992326;28;20018;-56
2023/06/05 12:16:36;;;;;;;5.47;1.75;;;25.50;60.00;;;;;;4992220;28;20030;-56
2023/06/05 12:19:13;;;;;;;2.45;1.70;;;25.50;59.80;;;;;;5011202;23;20079;-44
2023/06/05 12:21:39;;;;;;;2.40;1.70;;;25.50;60.50;;;;;;4983999;28;20031;-47
2023/06/05 12:24:05;;;;;;;5.00;1.70;;;25.50;59.40;;;;;;4987179;28;20019;-48
2023/06/05 12:26:56;;;;;;;2.60;2.10;;;25.40;59.70;;;;;;4991711;28;20081;-45
2023/06/05 12:29:24;;;;;;;2.45;2.00;;;25.40;60.20;;;;;;4970632;28;20045;-50
2023/06/05 12:31:51;;;;;;;3.65;2.00;;;25.50;60.10;;;;;;4971981;28;20027;-47
2023/06/05 12:34:16;;;;;;;20.02;15.88;;;25.50;60.10;;;;;;4972333;28;20015;-54
2023/06/05 12:36:43;;;;;;;2.63;2.30;;;25.60;59.30;;;;;;4972244;28;20102;-51
2023/06/05 12:39:12;;;;;;;4.00;2.33;;;25.70;59.90;;;;;;4972516;28;20089;-46
2023/06/05 12:41:41;;;;;;;4.45;1.83;;;25.80;59.70;;;;;;4967921;28;20503;-46
2023/06/05 12:44:08;;;;;;;2.22;1.80;;;25.80;60.00;;;;;;4972310;28;20031;-46
2023/06/05 12:46:35;;;;;;;2.92;2.03;;;25.90;60.20;;;;;;4972026;28;20109;-47
2023/06/05 12:49:03;;;;;;;3.55;1.80;;;25.90;59.10;;;;;;4964331;28;20015;-52
2023/06/05 12:51:30;;;;;;;1.90;1.80;;;25.90;59.20;;;;;;4984498;28;20119;-48
2023/06/05 12:53:56;;;;;;;6.03;1.98;;;25.90;59.10;;;;;;4971855;28;20019;-49
2023/06/05 12:56:26;;;;;;;2.58;2.05;;;25.90;58.80;;;;;;4972261;28;20090;-49
2023/06/05 12:58:57;;;;;;;9.25;1.92;;;25.70;59.90;;;;;;4971980;28;20026;-48
2023/06/05 13:01:23;;;;;;;1.73;1.40;;;25.70;60.00;;;;;;4971726;28;20031;-53